createdAt,value
2023-03-05T00:00:54.208Z,95093.41
2023-03-05T00:03:40.681Z,95094.50
2023-03-05T00:06:28.472Z,95097.19
2023-03-05T00:09:14.773Z,95103.38
2023-03-05T00:12:00.770Z,95098.78
2023-03-05T00:14:47.654Z,95098.78
2023-03-05T00:17:33.355Z,95089.72
2023-03-05T00:20:19.304Z,95087.66
2023-03-05T00:23:05.212Z,95090.41
2023-03-05T00:25:51.197Z,95084.03
2023-03-05T00:28:36.904Z,95088.31
2023-03-05T00:31:32.280Z,95075.97
2023-03-05T00:34:19.451Z,95080.47
2023-03-05T00:37:06.027Z,95073.78
2023-03-05T00:39:51.784Z,95069.41
2023-03-05T00:42:38.837Z,95064.84
2023-03-05T00:45:24.907Z,95073.19
2023-03-05T00:48:11.792Z,95079.16
2023-03-05T00:50:57.483Z,95069.09
2023-03-05T00:53:46.406Z,95069.69
2023-03-05T00:56:32.316Z,95077.84
2023-03-05T00:59:18.268Z,95069.06
2023-03-05T01:02:03.932Z,95065.16
2023-03-05T01:04:49.715Z,95064.44
2023-03-05T01:07:35.434Z,95069.91
2023-03-05T01:10:23.866Z,95061.63
2023-03-05T01:13:09.668Z,95060.53
2023-03-05T01:15:55.838Z,95063.22
2023-03-05T01:18:41.782Z,95062.66
2023-03-05T01:21:27.375Z,95065.84
2023-03-05T01:24:13.251Z,95063.63
2023-03-05T01:26:59.135Z,95067.91
2023-03-05T01:29:45.051Z,95067.63
2023-03-05T01:32:30.827Z,95065.22
2023-03-05T01:35:19.901Z,95059.38
2023-03-05T01:38:05.661Z,95059.97
2023-03-05T01:40:51.754Z,95052.50
2023-03-05T01:43:38.043Z,95060.03
2023-03-05T01:46:26.430Z,95053.06
2023-03-05T01:49:14.967Z,95054.66
2023-03-05T01:52:09.336Z,95049.28
2023-03-05T01:55:16.445Z,95047.69
2023-03-05T01:58:07.498Z,95053.06
2023-03-05T02:00:55.035Z,95060.66
2023-03-05T02:03:41.774Z,95056.84
2023-03-05T02:06:28.267Z,95053.69
2023-03-05T02:09:14.336Z,95057.47
2023-03-05T02:12:00.171Z,95057.47
2023-03-05T02:14:48.114Z,95066.59
2023-03-05T02:17:34.180Z,95056.94
2023-03-05T02:20:23.479Z,95063.91
2023-03-05T02:23:09.556Z,95060.13
2023-03-05T02:25:55.694Z,95061.44
2023-03-05T02:28:50.793Z,95060.66
2023-03-05T02:31:39.089Z,95058.53
2023-03-05T02:34:25.115Z,95069.00
2023-03-05T02:37:11.344Z,95059.63
2023-03-05T02:39:58.245Z,95058.03
2023-03-05T02:42:44.974Z,95060.22
2023-03-05T02:45:32.117Z,95059.41
2023-03-05T02:48:18.130Z,95057.81
2023-03-05T02:51:05.877Z,95057.00
2023-03-05T02:53:51.867Z,95060.78
2023-03-05T02:56:38.383Z,95057.34
2023-03-05T02:59:24.751Z,95055.41
2023-03-05T03:02:10.387Z,95054.34
2023-03-05T03:04:56.289Z,95051.66
2023-03-05T03:07:41.998Z,95056.84
2023-03-05T03:10:28.073Z,95048.47
2023-03-05T03:13:13.767Z,95049.06
2023-03-05T03:16:04.999Z,95056.03
2023-03-05T03:18:51.022Z,95055.75
2023-03-05T03:21:37.299Z,95046.88
2023-03-05T03:24:23.358Z,95043.69
2023-03-05T03:27:09.639Z,95041.06
2023-03-05T03:29:55.345Z,95045.88
2023-03-05T03:32:40.931Z,95051.25
2023-03-05T03:35:26.810Z,95048.56
2023-03-05T03:38:13.830Z,95049.66
2023-03-05T03:40:59.625Z,95048.03
2023-03-05T03:43:45.315Z,95044.28
2023-03-05T03:46:31.390Z,95046.97
2023-03-05T03:49:23.262Z,95041.59
2023-03-05T03:52:10.325Z,95045.06
2023-03-05T03:55:01.667Z,95046.44
2023-03-05T03:57:47.903Z,95044.84
2023-03-05T04:00:33.583Z,95037.13
2023-03-05T04:03:27.596Z,95045.47
2023-03-05T04:06:14.277Z,95035.88
2023-03-05T04:09:00.565Z,95050.81
2023-03-05T04:11:46.243Z,95048.63
2023-03-05T04:14:39.703Z,95048.16
2023-03-05T04:17:25.338Z,95055.41
2023-03-05T04:20:11.789Z,95045.47
2023-03-05T04:22:57.659Z,95047.06
2023-03-05T04:25:43.836Z,95039.00
2023-03-05T04:28:30.515Z,95050.81
2023-03-05T04:31:17.372Z,95053.00
2023-03-05T04:34:03.083Z,95045.81
2023-03-05T04:36:48.947Z,95041.34
2023-03-05T04:39:34.877Z,95043.00
2023-03-05T04:42:21.186Z,95044.19
2023-03-05T04:45:08.469Z,95045.78
2023-03-05T04:47:54.302Z,95051.16
2023-03-05T04:50:40.549Z,95053.34
2023-03-05T04:53:26.591Z,95048.03
2023-03-05T04:56:12.580Z,95043.16
2023-03-05T04:59:00.171Z,95043.69
2023-03-05T05:01:46.292Z,95040.50
2023-03-05T05:04:33.451Z,95047.44
2023-03-05T05:07:19.318Z,95039.41
2023-03-05T05:10:05.518Z,95042.59
2023-03-05T05:12:51.737Z,95045.78
2023-03-05T05:15:40.472Z,95042.09
2023-03-05T05:18:26.730Z,95046.38
2023-03-05T05:21:14.118Z,95034.59
2023-03-05T05:24:00.212Z,95042.44
2023-03-05T05:26:46.087Z,95045.72
2023-03-05T05:29:32.408Z,95055.84
2023-03-05T05:32:24.184Z,95054.06
2023-03-05T05:35:10.905Z,95052.47
2023-03-05T05:37:56.539Z,95057.84
2023-03-05T05:40:42.459Z,95062.91
2023-03-05T05:43:28.156Z,95064.22
2023-03-05T05:46:16.403Z,95064.22
2023-03-05T05:49:02.275Z,95063.13
2023-03-05T05:51:48.094Z,95063.63
2023-03-05T05:54:33.943Z,95062.03
2023-03-05T05:57:20.993Z,95065.72
2023-03-05T06:00:11.231Z,95078.00
2023-03-05T06:03:00.239Z,95062.38
2023-03-05T06:05:47.711Z,95070.88
2023-03-05T06:08:34.018Z,95067.91
2023-03-05T06:11:20.716Z,95076.44
2023-03-05T06:14:08.382Z,95079.63
2023-03-05T06:16:55.636Z,95079.84
2023-03-05T06:19:41.325Z,95072.78
2023-03-05T06:22:27.103Z,95079.69
2023-03-05T06:25:14.222Z,95079.69
2023-03-05T06:27:59.882Z,95081.28
2023-03-05T06:30:45.553Z,95082.66
2023-03-05T06:33:31.445Z,95084.25
2023-03-05T06:36:18.907Z,95091.00
2023-03-05T06:39:05.463Z,95087.63
2023-03-05T06:41:52.125Z,95095.38
2023-03-05T06:44:40.058Z,95097.97
2023-03-05T06:47:25.813Z,95097.13
2023-03-05T06:50:14.655Z,95101.41
2023-03-05T06:53:00.590Z,95096.81
2023-03-05T06:55:46.315Z,95100.59
2023-03-05T06:58:32.233Z,95099.78
2023-03-05T07:01:18.930Z,95100.59
2023-03-05T07:04:05.940Z,95102.19
2023-03-05T07:06:51.663Z,95097.81
2023-03-05T07:09:42.936Z,95101.81
2023-03-05T07:12:28.679Z,95100.94
2023-03-05T07:15:14.541Z,95098.66
2023-03-05T07:18:00.563Z,95097.78
2023-03-05T07:20:46.584Z,95100.59
2023-03-05T07:23:32.765Z,95098.91
2023-03-05T07:26:18.404Z,95093.53
2023-03-05T07:29:04.338Z,95105.31
2023-03-05T07:31:50.456Z,95101.44
2023-03-05T07:34:37.743Z,95099.75
2023-03-05T07:37:23.799Z,95098.38
2023-03-05T07:40:10.407Z,95094.31
2023-03-05T07:42:56.338Z,95099.28
2023-03-05T07:45:48.930Z,95087.13
2023-03-05T07:48:35.908Z,95096.09
2023-03-05T07:51:23.403Z,95094.91
2023-03-05T07:54:10.426Z,95094.81
2023-03-05T07:56:57.385Z,95092.00
2023-03-05T07:59:43.363Z,95092.22
2023-03-05T08:02:29.910Z,95090.25
2023-03-05T08:05:15.893Z,95095.00
2023-03-05T08:08:02.096Z,95099.19
2023-03-05T08:10:47.877Z,95095.59
2023-03-05T08:13:34.117Z,95100.38
2023-03-05T08:16:21.730Z,95094.41
2023-03-05T08:19:08.393Z,95091.44
2023-03-05T08:21:55.630Z,95100.19
2023-03-05T08:24:41.845Z,95106.56
2023-03-05T08:27:27.886Z,95100.25
2023-03-05T08:30:17.392Z,95101.75
2023-03-05T08:33:03.471Z,95097.38
2023-03-05T08:35:49.277Z,95099.16
2023-03-05T08:38:35.180Z,95114.91
2023-03-05T08:41:21.570Z,95107.00
2023-03-05T08:44:07.509Z,95109.41
2023-03-05T08:46:55.811Z,95114.19
2023-03-05T08:49:42.041Z,95103.72
2023-03-05T08:52:27.870Z,95114.78
2023-03-05T08:55:13.479Z,95113.69
2023-03-05T08:57:59.239Z,95113.69
2023-03-05T09:00:45.198Z,95110.50
2023-03-05T09:03:31.410Z,95106.69
2023-03-05T09:06:17.466Z,95103.41
2023-03-05T09:09:03.300Z,95109.16
2023-03-05T09:11:49.519Z,95105.94
2023-03-05T09:14:35.579Z,95106.63
2023-03-05T09:17:22.258Z,95102.66
2023-03-05T09:20:11.463Z,95101.66
2023-03-05T09:22:57.219Z,95108.84
2023-03-05T09:25:43.066Z,95098.66
2023-03-05T09:28:29.269Z,95095.47
2023-03-05T09:31:15.368Z,95099.25
2023-03-05T09:34:04.178Z,95097.66
2023-03-05T09:36:50.612Z,95100.56
2023-03-05T09:39:37.087Z,95099.75
2023-03-05T09:42:44.355Z,95100.69
2023-03-05T09:45:52.895Z,95094.00
2023-03-05T09:48:50.526Z,95090.31
2023-03-05T09:51:40.450Z,95101.59
2023-03-05T09:54:40.421Z,95094.91
2023-03-05T09:57:34.736Z,95096.28
2023-03-05T10:00:42.173Z,95093.94
2023-03-05T10:04:22.388Z,95093.13
2023-03-05T10:07:21.802Z,95082.47
2023-03-05T10:10:14.616Z,95089.53
2023-03-05T10:13:02.460Z,95080.19
2023-03-05T10:15:57.259Z,95075.41
2023-03-05T10:18:52.071Z,95074.03
2023-03-05T10:21:46.460Z,95073.88
2023-03-05T10:24:41.680Z,95070.97
2023-03-05T10:28:10.402Z,95066.88
2023-03-05T10:31:08.562Z,95070.56
2023-03-05T10:34:03.660Z,95061.53
2023-03-05T10:36:52.263Z,95059.06
2023-03-05T10:39:57.894Z,95064.13
2023-03-05T10:43:18.337Z,95053.22
2023-03-05T10:46:05.222Z,95051.41
2023-03-05T10:48:55.839Z,95050.47
2023-03-05T10:51:49.495Z,95040.50
2023-03-05T10:54:38.641Z,95032.41
2023-03-05T10:57:29.880Z,95037.19
2023-03-05T11:00:26.111Z,95026.28
2023-03-05T11:03:11.907Z,95023.47
2023-03-05T11:06:02.537Z,95021.25
2023-03-05T11:08:48.526Z,95020.63
2023-03-05T11:11:34.508Z,95012.88
2023-03-05T11:14:31.134Z,95012.88
2023-03-05T11:17:28.562Z,95010.47
2023-03-05T11:20:26.805Z,94996.38
2023-03-05T11:23:20.149Z,94995.25
2023-03-05T11:26:19.859Z,94989.28
2023-03-05T11:29:18.385Z,94983.28
2023-03-05T11:32:36.523Z,94979.81
2023-03-05T11:35:32.665Z,94980.16
2023-03-05T11:38:26.369Z,94969.75
2023-03-05T11:41:12.276Z,94961.50
2023-03-05T11:43:59.516Z,94965.16
2023-03-05T11:46:51.994Z,94956.47
2023-03-05T11:49:42.978Z,94955.81
2023-03-05T11:52:32.269Z,94960.94
2023-03-05T11:55:43.053Z,94943.00
2023-03-05T11:58:34.619Z,94949.69
2023-03-05T12:01:23.093Z,94953.38
2023-03-05T12:04:09.116Z,94947.66
2023-03-05T12:06:59.125Z,94941.78
2023-03-05T12:09:47.783Z,94938.13
2023-03-05T12:12:43.299Z,94932.56
2023-03-05T12:15:31.715Z,94929.88
2023-03-05T12:18:19.705Z,94922.25
2023-03-05T12:21:14.741Z,94915.91
2023-03-05T12:24:03.841Z,94916.38
2023-03-05T12:27:04.982Z,94911.47
2023-03-05T12:29:52.191Z,94911.91
2023-03-05T12:32:44.306Z,94898.09
2023-03-05T12:35:41.016Z,94904.28
2023-03-05T12:38:31.163Z,94904.13
2023-03-05T12:41:23.040Z,94906.19
2023-03-05T12:44:08.886Z,94901.25
2023-03-05T12:47:15.819Z,94898.72
2023-03-05T12:50:02.167Z,94892.22
2023-03-05T12:52:48.220Z,94890.63
2023-03-05T12:55:35.946Z,94891.75
2023-03-05T12:58:49.990Z,94889.53
2023-03-05T13:01:54.323Z,94882.81
2023-03-05T13:04:40.848Z,94883.16
2023-03-05T13:07:26.800Z,94889.78
2023-03-05T13:10:28.088Z,94880.41
2023-03-05T13:13:16.140Z,94881.03
2023-03-05T13:16:02.370Z,94877.69
2023-03-05T13:18:49.046Z,94871.31
2023-03-05T13:21:35.439Z,94869.53
2023-03-05T13:24:21.306Z,94859.19
2023-03-05T13:27:22.204Z,94867.41
2023-03-05T13:30:23.135Z,94862.59
2023-03-05T13:33:17.350Z,94868.41
2023-03-05T13:36:03.948Z,94863.44
2023-03-05T13:38:50.249Z,94860.88
2023-03-05T13:41:36.221Z,94860.53
2023-03-05T13:44:22.283Z,94855.78
2023-03-05T13:47:20.102Z,94854.84
2023-03-05T13:50:08.372Z,94857.75
2023-03-05T13:52:54.388Z,94855.22
2023-03-05T13:55:40.473Z,94849.06
2023-03-05T13:58:47.661Z,94852.28
2023-03-05T14:01:38.219Z,94843.56
2023-03-05T14:04:29.653Z,94844.69
2023-03-05T14:07:39.747Z,94846.75
2023-03-05T14:10:36.643Z,94838.44
2023-03-05T14:13:25.115Z,94831.84
2023-03-05T14:16:13.845Z,94825.47
2023-03-05T14:19:01.707Z,94832.00
2023-03-05T14:21:50.358Z,94825.16
2023-03-05T14:24:37.349Z,94818.81
2023-03-05T14:27:23.474Z,94821.38
2023-03-05T14:30:17.513Z,94818.59
2023-03-05T14:33:06.955Z,94823.69
2023-03-05T14:36:00.069Z,94816.75
2023-03-05T14:38:49.231Z,94815.41
2023-03-05T14:41:40.805Z,94818.75
2023-03-05T14:44:26.653Z,94815.13
2023-03-05T14:47:12.641Z,94816.13
2023-03-05T14:49:58.679Z,94813.78
2023-03-05T14:52:45.407Z,94820.00
2023-03-05T14:55:32.393Z,94813.78
2023-03-05T14:58:22.021Z,94816.03
2023-03-05T15:01:13.272Z,94809.06
2023-03-05T15:04:01.125Z,94807.16
2023-03-05T15:06:50.854Z,94814.63
2023-03-05T15:09:37.882Z,94814.31
2023-03-05T15:12:24.835Z,94798.63
2023-03-05T15:15:15.300Z,94807.94
2023-03-05T15:18:01.885Z,94818.13
2023-03-05T15:20:57.350Z,94818.25
2023-03-05T15:23:44.627Z,94831.13
2023-03-05T15:26:30.378Z,94828.56
2023-03-05T15:29:15.998Z,94826.03
2023-03-05T15:32:02.592Z,94840.63
2023-03-05T15:34:48.744Z,94833.28
2023-03-05T15:37:35.158Z,94833.28
2023-03-05T15:40:21.912Z,94829.66
2023-03-05T15:43:07.882Z,94829.78
2023-03-05T15:45:53.849Z,94831.69
2023-03-05T15:48:39.752Z,94828.00
2023-03-05T15:51:25.732Z,94836.59
2023-03-05T15:54:11.726Z,94836.91
2023-03-05T15:56:57.711Z,94835.31
2023-03-05T15:59:43.830Z,94838.63
2023-03-05T16:02:29.806Z,94843.22
2023-03-05T16:05:15.616Z,94846.84
2023-03-05T16:08:02.147Z,94845.28
2023-03-05T16:10:48.130Z,94854.47
2023-03-05T16:13:35.134Z,94844.59
2023-03-05T16:16:23.652Z,94852.69
2023-03-05T16:19:10.430Z,94850.91
2023-03-05T16:21:56.553Z,94852.34
2023-03-05T16:24:42.543Z,94851.06
2023-03-05T16:27:29.247Z,94853.28
2023-03-05T16:30:17.458Z,94858.81
2023-03-05T16:33:03.471Z,94857.22
2023-03-05T16:35:49.718Z,94855.63
2023-03-05T16:38:35.742Z,94866.41
2023-03-05T16:41:24.178Z,94861.03
2023-03-05T16:44:11.000Z,94861.31
2023-03-05T16:46:57.249Z,94868.59
2023-03-05T16:49:44.470Z,94873.50
2023-03-05T16:52:30.470Z,94871.44
2023-03-05T16:55:16.327Z,94880.63
2023-03-05T16:58:02.562Z,94881.56
2023-03-05T17:00:49.139Z,94889.75
2023-03-05T17:03:38.914Z,94900.16
2023-03-05T17:06:27.122Z,94896.34
2023-03-05T17:09:13.943Z,94900.72
2023-03-05T17:12:00.207Z,94900.38
2023-03-05T17:14:46.293Z,94901.47
2023-03-05T17:17:32.557Z,94903.19
2023-03-05T17:20:20.120Z,94897.63
2023-03-05T17:23:05.780Z,94910.91
2023-03-05T17:25:52.548Z,94909.41
2023-03-05T17:28:38.569Z,94914.13
2023-03-05T17:31:24.885Z,94917.88
2023-03-05T17:34:11.117Z,94915.88
2023-03-05T17:36:56.768Z,94916.09
2023-03-05T17:39:42.512Z,94916.84
2023-03-05T17:42:28.401Z,94906.81
2023-03-05T17:45:14.824Z,94912.56
2023-03-05T17:48:00.840Z,94913.59
2023-03-05T17:50:46.882Z,94916.41
2023-03-05T17:53:32.518Z,94911.63
2023-03-05T17:56:22.031Z,94917.13
2023-03-05T17:59:07.937Z,94916.63
2023-03-05T18:01:53.578Z,94922.34
2023-03-05T18:04:41.062Z,94917.88
2023-03-05T18:07:28.234Z,94918.97
2023-03-05T18:10:15.446Z,94913.41
2023-03-05T18:13:01.761Z,94923.84
2023-03-05T18:15:47.894Z,94916.38
2023-03-05T18:18:37.323Z,94927.53
2023-03-05T18:21:24.898Z,94926.91
2023-03-05T18:24:10.507Z,94919.19
2023-03-05T18:26:56.628Z,94916.38
2023-03-05T18:29:42.536Z,94925.06
2023-03-05T18:32:29.662Z,94929.72
2023-03-05T18:35:15.411Z,94927.31
2023-03-05T18:38:01.402Z,94924.13
2023-03-05T18:40:47.983Z,94931.22
2023-03-05T18:43:35.152Z,94931.81
2023-03-05T18:46:21.385Z,94933.81
2023-03-05T18:49:09.486Z,94930.09
2023-03-05T18:51:55.799Z,94926.13
2023-03-05T18:54:41.734Z,94934.28
2023-03-05T18:57:27.683Z,94931.38
2023-03-05T19:00:15.272Z,94933.28
2023-03-05T19:03:03.435Z,94933.84
2023-03-05T19:05:51.274Z,94936.03
2023-03-05T19:08:38.503Z,94944.19
2023-03-05T19:11:25.663Z,94949.06
2023-03-05T19:14:12.669Z,94957.91
2023-03-05T19:16:58.618Z,94949.34
2023-03-05T19:19:49.979Z,94966.25
2023-03-05T19:22:35.822Z,94966.84
2023-03-05T19:25:21.954Z,94961.06
2023-03-05T19:28:07.960Z,94968.59
2023-03-05T19:30:53.908Z,94970.78
2023-03-05T19:33:40.229Z,94974.06
2023-03-05T19:36:25.873Z,94984.28
2023-03-05T19:39:11.880Z,94984.06
2023-03-05T19:41:58.118Z,94984.66
2023-03-05T19:44:44.256Z,94987.44
2023-03-05T19:47:30.327Z,94992.66
2023-03-05T19:50:16.640Z,94994.31
2023-03-05T19:53:02.421Z,94993.00
2023-03-05T19:55:48.423Z,95005.44
2023-03-05T19:58:35.081Z,95004.13
2023-03-05T20:01:23.672Z,95002.81
2023-03-05T20:04:13.453Z,95010.34
2023-03-05T20:06:59.377Z,95014.69
2023-03-05T20:09:45.461Z,95010.13
2023-03-05T20:12:31.540Z,95003.75
2023-03-05T20:15:18.405Z,95011.75
2023-03-05T20:18:04.336Z,95013.31
2023-03-05T20:20:54.880Z,95017.66
2023-03-05T20:23:40.860Z,95010.84
2023-03-05T20:26:27.073Z,95010.38
2023-03-05T20:29:17.348Z,95008.34
2023-03-05T20:32:03.998Z,95012.34
2023-03-05T20:34:51.239Z,95023.88
2023-03-05T20:38:25.010Z,95009.97
2023-03-05T20:41:16.497Z,95003.59
2023-03-05T20:44:05.525Z,95007.28
2023-03-05T20:47:23.013Z,95011.56
2023-03-05T20:50:16.948Z,95007.84
2023-03-05T20:53:04.311Z,95016.47
2023-03-05T20:55:51.205Z,95008.50
2023-03-05T21:03:20.929Z,95017.19
2023-03-05T21:06:08.341Z,95010.78
2023-03-05T21:08:54.420Z,95007.59
2023-03-05T21:11:46.074Z,95011.56
2023-03-05T21:14:37.722Z,95012.38
2023-03-05T21:17:23.351Z,95000.66
2023-03-05T21:20:12.480Z,95012.38
2023-03-05T21:22:58.841Z,95004.34
2023-03-05T21:25:45.187Z,95009.19
2023-03-05T21:28:31.977Z,95006.78
2023-03-05T21:31:20.662Z,95005.22
2023-03-05T21:34:07.153Z,95004.41
2023-03-05T21:36:53.525Z,95009.78
2023-03-05T21:39:39.753Z,94996.19
2023-03-05T21:42:25.982Z,95007.38
2023-03-05T21:45:14.649Z,94998.59
2023-03-05T21:48:01.666Z,95002.34
2023-03-05T21:50:48.424Z,95007.78
2023-03-05T21:53:36.569Z,94994.94
2023-03-05T21:56:25.092Z,94991.75
2023-03-05T21:59:11.065Z,94994.44
2023-03-05T22:01:56.819Z,95001.94
2023-03-05T22:04:43.183Z,94992.41
2023-03-05T22:07:28.838Z,94978.31
2023-03-05T22:10:19.155Z,94976.47
2023-03-05T22:13:17.791Z,94987.25
2023-03-05T22:16:04.064Z,94978.19
2023-03-05T22:18:51.332Z,94968.63
2023-03-05T22:21:37.475Z,94963.84
2023-03-05T22:24:25.493Z,94964.72
2023-03-05T22:27:11.521Z,94972.22
2023-03-05T22:29:58.310Z,94971.75
2023-03-05T22:32:44.140Z,94979.59
2023-03-05T22:35:30.185Z,94973.75
2023-03-05T22:38:16.369Z,94970.91
2023-03-05T22:41:02.442Z,94974.94
2023-03-05T22:43:49.123Z,94979.75
2023-03-05T22:46:35.017Z,94979.75
2023-03-05T22:49:22.032Z,94978.75
2023-03-05T22:52:07.777Z,94965.41
2023-03-05T22:54:55.942Z,94976.09
2023-03-05T22:57:43.271Z,94974.50
2023-03-05T23:00:28.921Z,94972.69
2023-03-05T23:03:15.578Z,94977.22
2023-03-05T23:06:01.491Z,94962.53
2023-03-05T23:08:47.460Z,94970.28
2023-03-05T23:11:33.097Z,94970.28
2023-03-05T23:14:18.855Z,94965.47
2023-03-05T23:17:04.837Z,94966.03
2023-03-05T23:19:50.840Z,94960.75
2023-03-05T23:22:37.826Z,94971.97
2023-03-05T23:25:25.662Z,94967.72
2023-03-05T23:28:12.334Z,94976.28
2023-03-05T23:30:57.979Z,94982.22
2023-03-05T23:33:44.059Z,94979.59
2023-03-05T23:36:29.945Z,94991.38
2023-03-05T23:39:15.798Z,94987.16
2023-03-05T23:42:01.582Z,94985.56
2023-03-05T23:44:47.397Z,94978.63
2023-03-05T23:47:36.534Z,94996.25
2023-03-05T23:50:25.289Z,94994.16
2023-03-05T23:53:11.250Z,94998.41
2023-03-05T23:55:59.324Z,95002.16
2023-03-05T23:58:45.251Z,94996.31
